Time;durP1;ratioP1;P1;durP2;ratioP2;P2;SDS_P1;SDS_P2;PMS_P1;PMS_P2;Temp;Humidity;BMP_temperature;BMP_pressure;BME280_temperature;BME280_humidity;BME280_pressure;Samples;Min_cycle;Max_cycle;Signal;HPM_P1;HPM_P2
2023/07/26 00:01:27;;;;;;;0.10;0.10;;;;;;;18.17;57.57;100585.81;7351787;19;20576;-58
2023/07/26 00:03:58;;;;;;;0.10;0.10;;;;;;;17.89;58.33;100543.28;7353542;19;20007;-60
2023/07/26 00:06:24;;;;;;;0.03;0.03;;;;;;;18.15;58.39;100588.53;7346292;19;20478;-59
2023/07/26 00:08:50;;;;;;;0.10;0.10;;;;;;;18.10;57.00;100590.59;7350785;19;20033;-60
2023/07/26 00:11:15;;;;;;;0.00;0.00;;;;;;;18.04;58.39;100581.19;7337559;19;20003;-60
2023/07/26 00:13:41;;;;;;;0.05;0.05;;;;;;;18.00;58.63;100584.13;7353170;19;20026;-59
2023/07/26 00:16:06;;;;;;;0.10;0.10;;;;;;;17.95;58.33;100584.38;7352863;19;20014;-60
2023/07/26 00:18:32;;;;;;;0.03;0.03;;;;;;;17.93;58.22;100585.38;7353084;19;20046;-60
2023/07/26 00:20:57;;;;;;;0.05;0.05;;;;;;;17.88;59.11;100580.34;7349913;19;20026;-60
2023/07/26 00:23:23;;;;;;;0.10;0.10;;;;;;;17.85;59.08;100581.38;7348600;19;20011;-60
2023/07/26 00:25:48;;;;;;;0.10;0.10;;;;;;;17.81;59.31;100573.69;7356859;19;20024;-60
2023/07/26 00:28:14;;;;;;;0.05;0.05;;;;;;;17.78;59.21;100579.97;7352081;19;20014;-60
2023/07/26 00:30:39;;;;;;;0.00;0.00;;;;;;;17.74;59.39;100573.19;7355712;19;20102;-59
2023/07/26 00:33:05;;;;;;;0.05;0.05;;;;;;;17.72;59.33;100580.28;7352082;19;20022;-60
2023/07/26 00:35:37;;;;;;;0.00;0.00;;;;;;;17.61;59.40;100572.94;7350376;19;20561;-60
2023/07/26 00:38:03;;;;;;;0.10;0.10;;;;;;;17.63;59.56;100586.06;7349600;19;20014;-60
2023/07/26 00:40:28;;;;;;;0.00;0.00;;;;;;;17.61;60.18;100587.94;7356044;19;20014;-60
2023/07/26 00:42:53;;;;;;;0.10;0.10;;;;;;;17.57;59.94;100592.53;7345399;19;20014;-60
2023/07/26 00:45:19;;;;;;;0.00;0.00;;;;;;;17.55;59.49;100588.28;7355304;19;20010;-61
2023/07/26 00:47:45;;;;;;;0.00;0.00;;;;;;;17.52;60.00;100591.06;7343196;19;20011;-60
2023/07/26 00:50:11;;;;;;;0.10;0.10;;;;;;;17.50;60.16;100598.22;7353861;19;20017;-61
2023/07/26 00:52:37;;;;;;;0.00;0.00;;;;;;;17.43;60.24;100588.91;7351113;19;20018;-61
2023/07/26 00:55:03;;;;;;;0.10;0.10;;;;;;;17.37;60.46;100580.38;7353161;19;20442;-60
2023/07/26 00:57:30;;;;;;;0.10;0.10;;;;;;;17.32;60.30;100566.56;7350821;19;20174;-58
2023/07/26 00:59:57;;;;;;;0.10;0.10;;;;;;;17.38;60.59;100586.50;7348983;19;20039;-60
2023/07/26 01:02:22;;;;;;;0.10;0.10;;;;;;;17.36;60.49;100577.84;7347285;19;20024;-59
2023/07/26 01:04:48;;;;;;;0.05;0.05;;;;;;;17.33;60.53;100576.19;7350951;19;20729;-60
2023/07/26 01:07:46;;;;;;;0.03;0.03;;;;;;;17.33;59.20;100567.44;7349750;19;20098;-60
2023/07/26 01:10:24;;;;;;;0.00;0.00;;;;;;;17.30;59.76;100568.47;7245472;19;2004283;-60
2023/07/26 01:13:03;;;;;;;0.10;0.10;;;;;;;17.27;59.94;100562.47;7350255;19;20014;-59
2023/07/26 01:15:34;;;;;;;0.10;0.10;;;;;;;17.11;60.48;100526.34;7353331;19;20021;-60
2023/07/26 01:18:13;;;;;;;0.10;0.10;;;;;;;17.14;59.98;100540.31;7350226;19;20020;-60
2023/07/26 01:20:39;;;;;;;0.10;0.10;;;;;;;17.19;60.87;100549.69;7341957;19;20025;-60
2023/07/26 01:23:04;;;;;;;0.08;0.08;;;;;;;17.17;61.04;100551.56;7349348;19;20018;-60
2023/07/26 01:25:30;;;;;;;0.10;0.10;;;;;;;17.15;60.91;100547.31;7352469;19;20025;-60
2023/07/26 01:27:55;;;;;;;0.10;0.10;;;;;;;17.15;61.16;100547.31;7347883;19;20015;-60
2023/07/26 01:30:22;;;;;;;0.00;0.00;;;;;;;17.11;61.32;100542.16;7352470;19;20010;-60
2023/07/26 01:32:51;;;;;;;0.10;0.10;;;;;;;17.10;61.08;100545.75;7351493;19;20725;-60
2023/07/26 01:35:21;;;;;;;0.10;0.10;;;;;;;17.07;60.90;100550.31;7348667;19;20026;-59
2023/07/26 01:37:47;;;;;;;0.10;0.10;;;;;;;17.05;61.38;100546.94;7349860;19;20015;-60
2023/07/26 01:40:14;;;;;;;0.10;0.10;;;;;;;17.03;60.98;100539.09;7347579;19;20049;-60
2023/07/26 01:42:41;;;;;;;0.10;0.10;;;;;;;17.02;61.57;100525.97;7351918;19;20072;-60
2023/07/26 01:45:09;;;;;;;0.00;0.00;;;;;;;16.89;61.28;100512.59;7349047;19;20037;-60
2023/07/26 01:47:34;;;;;;;0.10;0.10;;;;;;;16.96;61.13;100536.84;7351318;19;20491;-60
2023/07/26 01:50:00;;;;;;;0.00;0.00;;;;;;;16.92;61.44;100530.88;7348928;19;20010;-60
2023/07/26 01:52:26;;;;;;;0.10;0.10;;;;;;;16.89;61.54;100519.66;7353122;19;20024;-60
2023/07/26 01:54:51;;;;;;;0.10;0.10;;;;;;;16.86;61.52;100526.75;7330095;19;20485;-60
2023/07/26 01:57:17;;;;;;;0.10;0.10;;;;;;;16.84;61.62;100520.72;7353954;19;20874;-60
2023/07/26 01:59:42;;;;;;;0.00;0.00;;;;;;;16.81;61.49;100518.22;7354468;19;20018;-60
2023/07/26 02:02:08;;;;;;;0.05;0.05;;;;;;;16.78;61.85;100523.69;7360864;19;20352;-60
2023/07/26 02:04:33;;;;;;;0.10;0.10;;;;;;;16.76;61.65;100520.25;7361031;19;20015;-60
2023/07/26 02:06:59;;;;;;;0.05;0.05;;;;;;;16.72;62.03;100513.44;7358562;19;20034;-60
2023/07/26 02:09:24;;;;;;;0.10;0.10;;;;;;;16.71;61.75;100511.72;7355810;19;20015;-60
2023/07/26 02:11:49;;;;;;;0.00;0.00;;;;;;;16.64;61.84;100504.19;7356492;19;20018;-60
2023/07/26 02:14:16;;;;;;;0.00;0.00;;;;;;;16.69;61.74;100513.56;7359516;19;20019;-60
2023/07/26 02:16:42;;;;;;;0.10;0.10;;;;;;;16.53;61.94;100496.84;7360421;19;20002;-58
2023/07/26 02:19:07;;;;;;;0.00;0.00;;;;;;;16.52;61.99;100487.19;7362595;19;20038;-60
2023/07/26 02:21:33;;;;;;;0.05;0.05;;;;;;;16.59;62.15;100502.63;7350780;19;20006;-58
2023/07/26 02:23:58;;;;;;;0.10;0.10;;;;;;;16.57;61.86;100506.25;7360695;19;20018;-60
2023/07/26 02:26:24;;;;;;;0.10;0.10;;;;;;;16.41;62.28;100487.72;7351939;19;20006;-58
2023/07/26 02:28:49;;;;;;;0.10;0.10;;;;;;;16.54;62.00;100515.19;7360907;19;20649;-59
2023/07/26 02:31:15;;;;;;;0.00;0.00;;;;;;;16.51;62.35;100506.56;7355352;19;20731;-59
2023/07/26 02:33:40;;;;;;;0.00;0.00;;;;;;;16.50;62.41;100507.53;7358185;19;20029;-60
2023/07/26 02:36:06;;;;;;;0.10;0.10;;;;;;;16.46;62.42;100503.31;7358052;19;20006;-60
2023/07/26 02:38:31;;;;;;;0.00;0.00;;;;;;;16.47;62.35;100510.28;7362317;19;20839;-60
2023/07/26 02:40:56;;;;;;;0.10;0.10;;;;;;;16.46;62.66;100508.59;7358604;19;20710;-59
2023/07/26 02:43:22;;;;;;;0.10;0.10;;;;;;;16.45;62.72;100507.75;7362376;19;21372;-60
2023/07/26 02:45:47;;;;;;;0.10;0.10;;;;;;;16.45;62.39;100504.25;7357762;19;20378;-58
2023/07/26 02:48:13;;;;;;;0.10;0.10;;;;;;;16.41;62.63;100503.56;7360745;19;20017;-60
2023/07/26 02:50:38;;;;;;;0.10;0.10;;;;;;;16.41;62.32;100498.28;7356941;19;20034;-59
2023/07/26 02:53:04;;;;;;;0.03;0.03;;;;;;;16.39;62.77;100499.31;7359172;19;20013;-60
2023/07/26 02:55:29;;;;;;;0.00;0.00;;;;;;;16.38;62.32;100502.88;7357487;19;20007;-60
2023/07/26 02:57:55;;;;;;;0.10;0.10;;;;;;;16.37;62.55;100501.13;7356925;19;20029;-60
2023/07/26 03:00:20;;;;;;;0.10;0.10;;;;;;;16.35;62.38;100494.16;7356016;19;20002;-60
2023/07/26 03:02:46;;;;;;;0.10;0.10;;;;;;;16.31;62.58;100484.72;7358267;19;20021;-60
2023/07/26 03:05:11;;;;;;;0.03;0.03;;;;;;;16.30;62.60;100490.91;7359954;19;20044;-60
2023/07/26 03:07:36;;;;;;;0.10;0.10;;;;;;;16.28;62.61;100484.88;7356701;19;20581;-60
2023/07/26 03:10:02;;;;;;;0.00;0.00;;;;;;;16.25;62.55;100471.84;7358570;19;20011;-60
2023/07/26 03:12:27;;;;;;;0.00;0.00;;;;;;;16.26;62.51;100472.69;7356585;19;20007;-59
2023/07/26 03:14:53;;;;;;;0.00;0.00;;;;;;;16.17;63.12;100452.94;7358701;19;20007;-60
2023/07/26 03:17:19;;;;;;;0.10;0.10;;;;;;;16.23;62.79;100473.72;7357071;19;20030;-60
2023/07/26 03:19:44;;;;;;;0.10;0.10;;;;;;;16.21;62.94;100467.66;7333881;19;20015;-60
2023/07/26 03:22:09;;;;;;;0.00;0.00;;;;;;;16.18;62.96;100465.19;7358836;19;20485;-59
2023/07/26 03:24:35;;;;;;;0.00;0.00;;;;;;;16.16;62.75;100464.38;7358044;19;20040;-60
2023/07/26 03:27:00;;;;;;;0.10;0.10;;;;;;;16.15;63.09;100460.06;7355732;19;20042;-59
2023/07/26 03:29:26;;;;;;;0.00;0.00;;;;;;;16.13;63.19;100458.44;7350121;19;20022;-60
2023/07/26 03:31:51;;;;;;;0.10;0.10;;;;;;;16.02;63.38;100443.19;7355599;19;20014;-60
2023/07/26 03:34:17;;;;;;;0.00;0.00;;;;;;;16.09;63.38;100460.38;7358086;19;20014;-60
2023/07/26 03:36:42;;;;;;;0.00;0.00;;;;;;;16.07;63.44;100459.59;7360373;19;20014;-60
2023/07/26 03:39:08;;;;;;;0.03;0.03;;;;;;;16.04;63.32;100457.97;7352065;19;20002;-60
2023/07/26 03:41:33;;;;;;;0.10;0.10;;;;;;;16.00;62.94;100458.19;7357913;19;20094;-59
2023/07/26 03:43:59;;;;;;;0.10;0.10;;;;;;;15.98;63.39;100457.41;7349913;19;20017;-60
2023/07/26 03:46:24;;;;;;;0.10;0.10;;;;;;;15.96;62.97;100454.84;7359164;19;20010;-60
2023/07/26 03:48:50;;;;;;;0.00;0.00;;;;;;;15.94;62.97;100458.50;7355526;19;20441;-59
2023/07/26 03:51:15;;;;;;;0.10;0.10;;;;;;;15.89;63.08;100453.44;7360194;19;20014;-60
2023/07/26 03:53:40;;;;;;;0.10;0.10;;;;;;;15.88;63.19;100462.28;7359334;19;20014;-59
2023/07/26 03:56:06;;;;;;;0.00;0.00;;;;;;;15.85;63.00;100456.28;7355638;19;20011;-59
2023/07/26 03:58:31;;;;;;;0.10;0.10;;;;;;;15.82;63.23;100457.31;7356693;19;20392;-59
2023/07/26 04:00:57;;;;;;;0.00;0.00;;;;;;;15.78;62.95;100451.34;7356958;19;20018;-60
2023/07/26 04:03:22;;;;;;;0.10;0.10;;;;;;;15.73;63.31;100448.06;7356504;19;20485;-60
2023/07/26 04:05:48;;;;;;;0.00;0.00;;;;;;;15.72;63.26;100451.63;7355053;19;20014;-59
2023/07/26 04:08:13;;;;;;;0.10;0.10;;;;;;;15.67;63.00;100451.00;7354379;19;20014;-60
2023/07/26 04:10:39;;;;;;;0.00;0.00;;;;;;;15.65;63.46;100455.47;7357470;19;20022;-60
2023/07/26 04:13:04;;;;;;;0.10;0.10;;;;;;;15.63;63.57;100454.69;7355786;19;20469;-60
2023/07/26 04:15:30;;;;;;;0.10;0.10;;;;;;;15.60;63.60;100457.44;7359329;19;20011;-59
2023/07/26 04:17:56;;;;;;;0.00;0.00;;;;;;;15.57;63.51;100449.69;7355733;19;20646;-60
2023/07/26 04:20:22;;;;;;;0.08;0.08;;;;;;;15.53;63.24;100442.88;7356706;19;20018;-60
2023/07/26 04:22:48;;;;;;;0.05;0.05;;;;;;;15.51;63.64;100444.69;7357265;19;20021;-60
2023/07/26 04:25:13;;;;;;;0.10;0.10;;;;;;;15.49;63.42;100444.78;7356537;19;20380;-60
2023/07/26 04:27:39;;;;;;;0.00;0.00;;;;;;;15.46;63.61;100444.94;7353256;19;20022;-60
2023/07/26 04:30:05;;;;;;;0.10;0.10;;;;;;;15.40;63.81;100428.56;7353963;19;20659;-60
2023/07/26 04:32:30;;;;;;;0.10;0.10;;;;;;;15.42;63.69;100432.84;7357825;19;20465;-60
2023/07/26 04:34:56;;;;;;;0.10;0.10;;;;;;;15.40;63.74;100420.66;7353350;19;20022;-59
2023/07/26 04:37:22;;;;;;;0.10;0.10;;;;;;;15.36;64.12;100405.94;7356628;19;19999;-60
2023/07/26 04:39:48;;;;;;;0.00;0.00;;;;;;;15.37;63.80;100412.94;7357483;19;20030;-58
2023/07/26 04:42:14;;;;;;;0.10;0.10;;;;;;;15.36;63.89;100408.59;7354075;19;20093;-59
2023/07/26 04:44:39;;;;;;;0.10;0.10;;;;;;;15.34;64.16;100407.81;7358381;19;20020;-59
2023/07/26 04:47:05;;;;;;;0.00;0.00;;;;;;;15.34;63.99;100402.56;7357779;19;20021;-60
2023/07/26 04:49:30;;;;;;;0.00;0.00;;;;;;;15.32;64.20;100400.84;7354528;19;20013;-60
2023/07/26 04:51:56;;;;;;;0.10;0.10;;;;;;;15.30;64.02;100415.84;7356245;19;20389;-58
2023/07/26 04:54:21;;;;;;;0.00;0.00;;;;;;;15.30;63.84;100422.88;7357661;19;20094;-60
2023/07/26 04:56:47;;;;;;;0.10;0.10;;;;;;;15.29;63.90;100421.19;7356034;19;20029;-60
2023/07/26 04:59:12;;;;;;;0.08;0.08;;;;;;;15.27;63.83;100410.75;7354069;19;20039;-59
2023/07/26 05:01:38;;;;;;;0.00;0.00;;;;;;;15.27;64.43;100423.03;7351846;19;20011;-60
2023/07/26 05:04:03;;;;;;;0.00;0.00;;;;;;;15.26;64.31;100422.19;7353952;19;20029;-60
2023/07/26 05:06:30;;;;;;;0.10;0.10;;;;;;;15.25;64.22;100417.81;7356422;19;20074;-60
2023/07/26 05:08:56;;;;;;;0.00;0.00;;;;;;;15.25;64.46;100420.47;7355678;19;20410;-60
2023/07/26 05:11:22;;;;;;;0.00;0.00;;;;;;;15.23;64.16;100424.94;7352427;19;20038;-60
2023/07/26 05:13:49;;;;;;;0.00;0.00;;;;;;;15.22;64.09;100425.88;7355456;19;20014;-59
2023/07/26 05:16:14;;;;;;;0.00;0.00;;;;;;;15.22;64.26;100430.28;7355183;19;20026;-59
2023/07/26 05:18:40;;;;;;;0.00;0.00;;;;;;;15.21;64.46;100429.44;7358408;19;20014;-60
2023/07/26 05:21:05;;;;;;;0.00;0.00;;;;;;;15.21;64.12;100420.69;7358565;19;20013;-60
2023/07/26 05:23:31;;;;;;;0.10;0.10;;;;;;;15.13;64.18;100409.66;7352225;19;20014;-60
2023/07/26 05:25:56;;;;;;;0.03;0.03;;;;;;;15.10;64.23;100400.13;7350605;19;20035;-58
2023/07/26 05:28:22;;;;;;;0.10;0.10;;;;;;;15.22;64.59;100423.25;7352263;19;20018;-60
2023/07/26 05:30:48;;;;;;;0.00;0.00;;;;;;;15.11;64.68;100401.84;7353523;19;20014;-60
2023/07/26 05:33:15;;;;;;;0.10;0.10;;;;;;;15.24;64.48;100413.50;7353467;19;20025;-59
2023/07/26 05:35:40;;;;;;;0.10;0.10;;;;;;;15.25;64.38;100420.47;7355358;19;20363;-58
2023/07/26 05:38:06;;;;;;;0.00;0.00;;;;;;;15.29;64.65;100416.78;7357141;19;20021;-60
2023/07/26 05:40:32;;;;;;;0.00;0.00;;;;;;;15.31;64.49;100407.03;7354321;19;20016;-59
2023/07/26 05:42:57;;;;;;;0.00;0.00;;;;;;;15.35;64.71;100410.38;7356305;19;20020;-60
2023/07/26 05:45:23;;;;;;;0.10;0.10;;;;;;;15.39;64.62;100404.03;7350189;19;20018;-59
2023/07/26 05:47:48;;;;;;;0.00;0.00;;;;;;;15.41;65.06;100401.31;7351097;19;20098;-58
2023/07/26 05:50:14;;;;;;;0.10;0.10;;;;;;;15.47;64.65;100408.94;7352898;19;20826;-59
2023/07/26 05:52:40;;;;;;;0.00;0.00;;;;;;;15.51;64.76;100407.84;7353005;19;20874;-59
2023/07/26 05:55:06;;;;;;;0.00;0.00;;;;;;;15.55;64.42;100406.78;7351710;19;20014;-59
2023/07/26 05:57:32;;;;;;;0.00;0.00;;;;;;;15.59;64.55;100397.81;7349840;19;20058;-60
2023/07/26 05:59:58;;;;;;;0.10;0.10;;;;;;;15.65;64.49;100397.56;7350443;19;20002;-60
2023/07/26 06:02:23;;;;;;;0.10;0.10;;;;;;;15.69;64.60;100398.28;7354362;19;20015;-60
2023/07/26 06:04:49;;;;;;;0.05;0.05;;;;;;;15.74;64.54;100402.38;7352086;19;20015;-59
2023/07/26 06:07:16;;;;;;;0.10;0.10;;;;;;;15.66;64.44;100375.59;7354102;19;20038;-59
2023/07/26 06:09:41;;;;;;;0.10;0.10;;;;;;;15.81;64.65;100395.91;7355565;19;20025;-60
2023/07/26 06:12:07;;;;;;;0.00;0.00;;;;;;;15.90;64.75;100396.34;7346856;19;20655;-60
2023/07/26 06:14:33;;;;;;;0.10;0.10;;;;;;;15.95;64.76;100394.34;7349280;19;20885;-59
2023/07/26 06:16:58;;;;;;;0.10;0.10;;;;;;;16.00;64.68;100389.69;7353256;19;20100;-58
2023/07/26 06:19:24;;;;;;;0.10;0.10;;;;;;;16.05;64.67;100377.16;7353131;19;20021;-59
2023/07/26 06:21:50;;;;;;;0.10;0.10;;;;;;;16.11;64.43;100368.94;7350649;19;20006;-60
2023/07/26 06:24:15;;;;;;;0.03;0.03;;;;;;;16.16;64.15;100361.66;7348218;19;20028;-62
2023/07/26 06:26:41;;;;;;;0.00;0.00;;;;;;;16.21;64.62;100354.34;7349650;19;20098;-60
2023/07/26 06:29:06;;;;;;;0.08;0.08;;;;;;;16.26;64.48;100357.59;7350278;19;20381;-59
2023/07/26 06:31:32;;;;;;;0.00;0.00;;;;;;;16.32;64.03;100356.44;7338474;19;20006;-60
2023/07/26 06:33:57;;;;;;;0.10;0.10;;;;;;;16.33;64.41;100353.75;7353233;19;20021;-58
2023/07/26 06:36:23;;;;;;;0.03;0.03;;;;;;;16.46;64.14;100355.72;7353045;19;20010;-60
2023/07/26 06:38:48;;;;;;;0.00;0.00;;;;;;;16.52;64.33;100358.88;7340402;19;20021;-60
2023/07/26 06:41:14;;;;;;;0.00;0.00;;;;;;;16.57;64.39;100362.16;7351047;19;20018;-60
2023/07/26 06:43:39;;;;;;;0.10;0.10;;;;;;;16.62;64.25;100359.25;7345687;19;20018;-60
2023/07/26 06:46:04;;;;;;;0.10;0.10;;;;;;;16.66;64.51;100355.53;7357944;19;20462;-60
2023/07/26 06:48:30;;;;;;;0.00;0.00;;;;;;;16.70;64.35;100357.06;7354580;19;20041;-59
2023/07/26 06:50:55;;;;;;;0.10;0.10;;;;;;;16.74;64.43;100356.00;7359069;19;20003;-60
2023/07/26 06:53:21;;;;;;;0.00;0.00;;;;;;;16.78;64.89;100344.38;7359312;19;20006;-60
2023/07/26 06:55:46;;;;;;;0.05;0.05;;;;;;;16.81;64.26;100338.06;7356680;19;20005;-60
2023/07/26 06:58:12;;;;;;;0.10;0.10;;;;;;;16.85;64.68;100343.09;7359412;19;20462;-59
2023/07/26 07:00:37;;;;;;;0.10;0.10;;;;;;;16.83;64.27;100346.75;7343403;19;20006;-60
2023/07/26 07:03:03;;;;;;;0.10;0.10;;;;;;;16.89;64.64;100346.41;7358125;19;20339;-60
2023/07/26 07:05:30;;;;;;;0.10;0.10;;;;;;;16.97;64.52;100332.78;7356572;19;20003;-60
2023/07/26 07:07:56;;;;;;;0.10;0.10;;;;;;;16.98;64.72;100334.50;7357724;19;20009;-60
2023/07/26 07:10:22;;;;;;;0.00;0.00;;;;;;;17.09;65.08;100337.41;7354821;19;20022;-60
2023/07/26 07:12:48;;;;;;;0.08;0.08;;;;;;;17.16;64.81;100336.13;7353178;19;20026;-60
2023/07/26 07:15:14;;;;;;;0.00;0.00;;;;;;;17.25;64.80;100342.69;7332241;19;20019;-58
2023/07/26 07:17:40;;;;;;;0.10;0.10;;;;;;;17.34;64.92;100340.38;7359703;19;20010;-59
2023/07/26 07:20:07;;;;;;;0.10;0.10;;;;;;;17.45;65.10;100333.63;7359334;19;20029;-58
2023/07/26 07:22:33;;;;;;;0.10;0.10;;;;;;;17.54;65.00;100327.84;7358381;19;20023;-59
2023/07/26 07:24:59;;;;;;;0.00;0.00;;;;;;;17.63;64.68;100330.78;7352953;19;20623;-58
2023/07/26 07:27:24;;;;;;;0.10;0.10;;;;;;;17.74;64.69;100330.22;7356607;19;20086;-58
2023/07/26 07:29:50;;;;;;;0.00;0.00;;;;;;;17.83;64.95;100324.38;7352135;19;20018;-58
2023/07/26 07:32:16;;;;;;;0.10;0.10;;;;;;;17.93;64.81;100318.53;7354262;19;20021;-58
2023/07/26 07:34:42;;;;;;;0.10;0.10;;;;;;;17.93;64.34;100302.69;7355347;19;20130;-58
2023/07/26 07:37:08;;;;;;;0.10;0.10;;;;;;;18.09;64.54;100314.03;7347105;19;20449;-58
2023/07/26 07:39:34;;;;;;;0.05;0.05;;;;;;;18.17;64.59;100306.50;7354923;19;20058;-58
2023/07/26 07:41:59;;;;;;;0.10;0.10;;;;;;;18.27;64.48;100302.38;7355118;19;20748;-59
2023/07/26 07:44:27;;;;;;;0.10;0.10;;;;;;;18.39;63.96;100301.59;7357191;19;20014;-58
2023/07/26 07:46:53;;;;;;;0.03;0.03;;;;;;;18.47;64.03;100302.94;7358715;19;20472;-58
2023/07/26 07:49:18;;;;;;;0.00;0.00;;;;;;;18.55;64.21;100301.53;7354297;19;20040;-58
2023/07/26 07:51:44;;;;;;;0.00;0.00;;;;;;;18.66;63.84;100299.06;7354851;19;20777;-58
2023/07/26 07:54:09;;;;;;;0.10;0.10;;;;;;;18.74;63.82;100292.47;7356903;19;20764;-58
2023/07/26 07:56:35;;;;;;;0.10;0.10;;;;;;;18.79;63.72;100293.88;7358908;19;20026;-56
2023/07/26 07:59:00;;;;;;;0.10;0.10;;;;;;;18.83;63.30;100284.78;7323912;19;20808;-59
2023/07/26 08:01:26;;;;;;;0.10;0.10;;;;;;;18.86;63.77;100287.25;7351993;19;20518;-59
2023/07/26 08:03:52;;;;;;;0.08;0.08;;;;;;;18.87;63.79;100286.31;7355283;19;20031;-58
2023/07/26 08:06:17;;;;;;;0.10;0.10;;;;;;;18.87;63.60;100286.31;7351504;19;20871;-59
2023/07/26 08:08:43;;;;;;;0.10;0.10;;;;;;;18.86;64.00;100281.13;7351172;19;20014;-59
2023/07/26 08:11:08;;;;;;;0.10;0.10;;;;;;;18.82;64.34;100272.53;7352032;19;20018;-59
2023/07/26 08:13:34;;;;;;;0.10;0.10;;;;;;;18.79;64.73;100271.84;7355730;19;20026;-58
2023/07/26 08:16:00;;;;;;;0.17;0.17;;;;;;;18.78;64.44;100271.00;7357217;19;20021;-58
2023/07/26 08:18:26;;;;;;;0.10;0.10;;;;;;;18.76;65.05;100264.97;7350840;19;20006;-59
2023/07/26 08:20:51;;;;;;;0.00;0.00;;;;;;;18.77;64.95;100269.31;7356462;19;20037;-59
2023/07/26 08:23:17;;;;;;;0.05;0.05;;;;;;;18.76;65.13;100261.50;7347831;19;20013;-58
2023/07/26 08:25:43;;;;;;;0.10;0.10;;;;;;;18.78;65.02;100265.72;7350768;19;20070;-58
2023/07/26 08:28:08;;;;;;;0.00;0.00;;;;;;;18.71;64.80;100251.19;7352959;19;20353;-58
2023/07/26 08:30:33;;;;;;;0.00;0.00;;;;;;;18.78;64.36;100259.59;7350466;19;20018;-57
2023/07/26 08:32:59;;;;;;;0.10;0.10;;;;;;;18.78;64.54;100263.06;7350469;19;20026;-57
2023/07/26 08:35:25;;;;;;;0.10;0.10;;;;;;;18.79;64.36;100258.63;7356239;19;20010;-58
2023/07/26 08:37:50;;;;;;;0.03;0.03;;;;;;;18.79;64.55;100250.69;7356146;19;20022;-58
2023/07/26 08:40:18;;;;;;;0.10;0.10;;;;;;;18.82;64.40;100246.06;7355765;19;20006;-58
2023/07/26 08:42:44;;;;;;;0.10;0.10;;;;;;;18.82;64.76;100246.06;7355400;19;20026;-58
2023/07/26 08:45:10;;;;;;;0.10;0.10;;;;;;;18.84;65.14;100243.31;7356379;19;20632;-59
2023/07/26 08:47:36;;;;;;;0.10;0.10;;;;;;;18.86;65.34;100236.16;7351985;19;20066;-58
2023/07/26 08:50:04;;;;;;;0.10;0.10;;;;;;;18.93;65.52;100240.91;7352928;19;20014;-58
2023/07/26 08:52:30;;;;;;;0.00;0.00;;;;;;;18.98;65.55;100223.91;7347114;19;20014;-58
2023/07/26 08:54:55;;;;;;;0.10;0.10;;;;;;;19.03;65.92;100227.94;7354058;19;20029;-58
2023/07/26 08:57:23;;;;;;;0.10;0.10;;;;;;;19.11;66.53;100219.47;7350775;19;20513;-58
2023/07/26 08:59:49;;;;;;;0.10;0.10;;;;;;;19.10;65.98;100202.75;7355972;19;20093;-58
2023/07/26 09:02:16;;;;;;;0.03;0.03;;;;;;;19.18;66.26;100199.63;7353290;19;20099;-58
2023/07/26 09:04:41;;;;;;;0.10;0.10;;;;;;;19.19;65.65;100206.59;7355018;19;20022;-59
2023/07/26 09:07:07;;;;;;;0.10;0.10;;;;;;;19.18;65.91;100203.13;7343394;19;20533;-58
2023/07/26 09:09:34;;;;;;;0.10;0.10;;;;;;;19.21;66.43;100204.72;7349087;19;20042;-59
2023/07/26 09:12:00;;;;;;;0.10;0.10;;;;;;;19.19;66.69;100196.88;7342166;19;20010;-57
2023/07/26 09:14:27;;;;;;;0.10;0.10;;;;;;;19.21;66.64;100199.44;7336161;19;20027;-58
2023/07/26 09:16:57;;;;;;;0.10;0.10;;;;;;;19.24;66.07;100193.91;7347560;19;20010;-59
2023/07/26 09:19:35;;;;;;;0.10;0.10;;;;;;;19.24;65.88;100190.41;7330073;19;20022;-58
2023/07/26 09:22:03;;;;;;;0.10;0.10;;;;;;;19.17;67.14;100188.19;7348353;19;20090;-59
2023/07/26 09:24:35;;;;;;;0.10;0.10;;;;;;;19.04;67.60;100168.78;7348555;19;20014;-57
2023/07/26 09:27:06;;;;;;;0.08;0.08;;;;;;;19.15;66.80;100189.22;7341400;19;20466;-59
2023/07/26 09:29:33;;;;;;;0.10;0.10;;;;;;;18.98;67.64;100161.25;7342594;19;20002;-57
2023/07/26 09:31:59;;;;;;;;;;;;;;;19.16;64.01;100180.38;7353783;19;20010;-59
2023/07/26 09:34:24;;;;;;;0.10;0.10;;;;;;;19.08;68.04;100182.66;7349259;19;19926;-59
2023/07/26 09:36:51;;;;;;;0.10;0.10;;;;;;;18.91;68.61;100159.97;7352933;19;20025;-59
2023/07/26 09:39:24;;;;;;;0.10;0.10;;;;;;;18.98;68.76;100168.34;7347897;19;20021;-59
2023/07/26 09:41:50;;;;;;;0.03;0.03;;;;;;;18.91;69.79;100170.56;7350322;19;20014;-59
2023/07/26 09:44:21;;;;;;;0.10;0.10;;;;;;;18.88;69.04;100161.00;7346964;19;20037;-58
2023/07/26 09:46:52;;;;;;;0.10;0.10;;;;;;;18.84;68.80;100162.16;7349581;19;20027;-59
2023/07/26 09:49:22;;;;;;;0.00;0.00;;;;;;;18.70;70.23;100138.38;7347907;19;20101;-58
2023/07/26 09:51:53;;;;;;;0.10;0.10;;;;;;;18.76;71.02;100161.81;7351195;19;20030;-58
2023/07/26 09:54:22;;;;;;;0.00;0.00;;;;;;;18.75;71.38;100154.81;7353302;19;20046;-59
2023/07/26 09:56:50;;;;;;;0.10;0.10;;;;;;;18.77;71.30;100152.94;7352883;19;20027;-59
2023/07/26 09:59:16;;;;;;;0.10;0.10;;;;;;;18.81;71.69;100148.28;7351259;19;20128;-57
2023/07/26 10:01:44;;;;;;;0.00;0.00;;;;;;;18.85;71.72;100144.47;7352126;19;20010;-59
2023/07/26 10:04:15;;;;;;;0.10;0.10;;;;;;;18.93;70.73;100142.19;7345139;19;20022;-59
2023/07/26 10:06:42;;;;;;;0.10;0.10;;;;;;;18.97;71.78;100137.53;7351177;19;20033;-58
2023/07/26 10:09:16;;;;;;;0.10;0.10;;;;;;;18.93;71.10;100121.00;7347741;19;20015;-59
2023/07/26 10:11:43;;;;;;;0.05;0.05;;;;;;;19.09;72.08;100136.72;7352113;19;20027;-59
2023/07/26 10:14:12;;;;;;;0.10;0.10;;;;;;;19.15;71.86;100131.00;7350718;19;20876;-59
2023/07/26 10:16:39;;;;;;;0.10;0.10;;;;;;;19.18;71.71;100136.09;7347962;19;20014;-59
2023/07/26 10:19:06;;;;;;;0.10;0.10;;;;;;;19.21;71.48;100129.72;7354031;19;20018;-59
2023/07/26 10:21:35;;;;;;;0.10;0.10;;;;;;;19.21;71.88;100119.16;7356920;19;20047;-59
2023/07/26 10:24:03;;;;;;;0.00;0.00;;;;;;;19.21;70.44;100112.09;7358972;19;20011;-59
2023/07/26 10:26:32;;;;;;;0.10;0.10;;;;;;;19.23;71.70;100111.97;7352106;19;20003;-58
2023/07/26 10:28:59;;;;;;;0.10;0.10;;;;;;;19.23;71.46;100101.38;7354544;19;20962;-59
2023/07/26 10:31:28;;;;;;;;;;;;;;;19.29;67.60;100114.19;7353986;19;20010;-59
2023/07/26 10:33:54;;;;;;;0.00;0.00;;;;;;;19.24;71.12;100103.91;7351051;19;20256;-59
2023/07/26 10:36:20;;;;;;;0.00;0.00;;;;;;;19.22;71.60;100095.25;7357755;19;20035;-58
2023/07/26 10:38:50;;;;;;;0.08;0.08;;;;;;;19.23;70.96;100094.28;7355046;19;20105;-59
2023/07/26 10:41:27;;;;;;;0.10;0.10;;;;;;;19.22;71.00;100091.75;7357630;19;20036;-59
2023/07/26 10:44:03;;;;;;;0.03;0.03;;;;;;;19.21;70.88;100092.66;7357632;19;20010;-59
2023/07/26 10:46:28;;;;;;;0.10;0.10;;;;;;;19.16;71.80;100085.91;7355896;19;20022;-59
2023/07/26 10:48:54;;;;;;;0.10;0.10;;;;;;;19.15;72.68;100078.06;7355977;19;20014;-59
2023/07/26 10:51:25;;;;;;;0.00;0.00;;;;;;;19.17;72.13;100065.59;7354176;19;20006;-58
2023/07/26 10:53:53;;;;;;;0.10;0.10;;;;;;;19.14;72.82;100063.13;7356658;19;20770;-59
2023/07/26 10:56:23;;;;;;;0.10;0.10;;;;;;;19.13;72.34;100053.50;7357543;19;20094;-59
2023/07/26 10:58:56;;;;;;;0.05;0.05;;;;;;;19.02;73.04;100034.88;7356061;19;20114;-59
2023/07/26 11:01:30;;;;;;;0.10;0.10;;;;;;;19.20;71.79;100049.47;7350858;19;20091;-59
2023/07/26 11:03:57;;;;;;;0.00;0.00;;;;;;;19.17;72.99;100047.06;7354676;19;20059;-59
2023/07/26 11:06:43;;;;;;;0.10;0.10;;;;;;;19.14;73.66;100044.63;7351137;19;20031;-58
2023/07/26 11:09:19;;;;;;;0.10;0.10;;;;;;;19.19;71.89;100037.19;7356426;19;20886;-59
2023/07/26 11:11:58;;;;;;;0.05;0.05;;;;;;;19.18;71.43;100019.63;7348417;19;20014;-58
2023/07/26 11:14:26;;;;;;;0.10;0.10;;;;;;;19.16;72.67;100017.09;7357699;19;20017;-58
2023/07/26 11:16:53;;;;;;;0.10;0.10;;;;;;;19.16;72.84;100017.09;7355761;19;20026;-58
2023/07/26 11:19:18;;;;;;;0.10;0.10;;;;;;;19.16;73.23;100014.47;7356892;19;20022;-58
2023/07/26 11:21:44;;;;;;;0.00;0.00;;;;;;;19.17;73.96;100002.91;7353095;19;20010;-58
2023/07/26 11:24:09;;;;;;;0.10;0.10;;;;;;;19.20;74.17;100004.47;7358273;19;20100;-58